Time;durP1;ratioP1;P1;durP2;ratioP2;P2;SDS_P1;SDS_P2;PMS_P1;PMS_P2;Temp;Humidity;BMP_temperature;BMP_pressure;BME280_temperature;BME280_humidity;BME280_pressure;Samples;Min_cycle;Max_cycle;Signal;HPM_P1;HPM_P2
2023/08/05 00:01:44;;;;;;;11.05;4.65;;;15.50;97.70;;;;;;5023615;28;20100;-80
2023/08/05 00:04:11;;;;;;;11.65;4.40;;;15.40;97.10;;;;;;5005104;28;20805;-81
2023/08/05 00:06:38;;;;;;;11.32;4.85;;;15.40;97.20;;;;;;5011881;28;20116;-81
2023/08/05 00:09:05;;;;;;;11.25;5.13;;;15.30;97.30;;;;;;4998157;28;20073;-80
2023/08/05 00:11:32;;;;;;;12.63;4.93;;;15.30;97.20;;;;;;5008202;28;20850;-80
2023/08/05 00:13:59;;;;;;;12.45;4.60;;;15.20;97.20;;;;;;5006075;28;20100;-82
2023/08/05 00:16:25;;;;;;;20.38;5.43;;;15.10;97.30;;;;;;5011535;28;20085;-81
2023/08/05 00:18:52;;;;;;;9.10;4.93;;;15.10;97.50;;;;;;5010912;28;20050;-81
2023/08/05 00:21:20;;;;;;;10.68;4.15;;;15.00;97.70;;;;;;5012823;28;20050;-81
2023/08/05 00:23:47;;;;;;;8.82;4.40;;;15.00;97.70;;;;;;5027137;28;20133;-81
2023/08/05 00:26:14;;;;;;;14.82;5.25;;;15.00;97.60;;;;;;5009855;28;20455;-81
2023/08/05 00:28:40;;;;;;;14.20;4.63;;;15.00;97.60;;;;;;5019870;28;20082;-82
2023/08/05 00:31:09;;;;;;;15.75;4.72;;;15.00;96.90;;;;;;5008578;28;20138;-81
2023/08/05 00:33:36;;;;;;;13.45;4.45;;;15.00;96.90;;;;;;5006276;28;20057;-81
2023/08/05 00:36:03;;;;;;;9.68;4.20;;;14.90;97.10;;;;;;5009809;28;20085;-81
2023/08/05 00:38:29;;;;;;;13.20;4.60;;;15.00;97.40;;;;;;5022236;28;20046;-81
2023/08/05 00:40:56;;;;;;;15.50;5.30;;;15.00;97.20;;;;;;5008890;28;20717;-81
2023/08/05 00:43:23;;;;;;;14.13;4.18;;;15.00;96.60;;;;;;5026155;28;20113;-80
2023/08/05 00:45:51;;;;;;;17.02;4.50;;;15.00;96.50;;;;;;5011150;28;20748;-81
2023/08/05 00:48:18;;;;;;;7.60;4.25;;;15.00;96.20;;;;;;5010509;28;20104;-81
2023/08/05 00:50:45;;;;;;;10.63;3.72;;;15.10;96.10;;;;;;5010620;28;20128;-81
2023/08/05 00:53:12;;;;;;;10.63;4.07;;;15.10;96.10;;;;;;5010447;28;20089;-81
2023/08/05 00:55:40;;;;;;;13.48;5.03;;;15.10;95.60;;;;;;5007172;28;20085;-80
2023/08/05 00:58:07;;;;;;;8.77;4.18;;;15.10;95.40;;;;;;5002041;28;20850;-81
2023/08/05 01:00:34;;;;;;;10.63;3.92;;;15.10;95.00;;;;;;5023297;28;20141;-81
2023/08/05 01:03:01;;;;;;;12.30;4.05;;;15.10;95.40;;;;;;5009762;28;20057;-81
2023/08/05 01:05:29;;;;;;;10.70;3.58;;;15.10;95.50;;;;;;5009041;28;20042;-81
2023/08/05 01:07:56;;;;;;;9.57;4.18;;;15.10;95.50;;;;;;5006036;28;20497;-81
2023/08/05 01:10:23;;;;;;;10.32;3.53;;;15.10;95.50;;;;;;5008322;28;20085;-81
2023/08/05 01:12:50;;;;;;;10.93;3.97;;;15.10;95.30;;;;;;5009039;28;20096;-82
2023/08/05 01:15:16;;;;;;;15.27;4.43;;;15.10;94.90;;;;;;5013220;28;20648;-81
2023/08/05 01:17:43;;;;;;;9.32;4.70;;;15.10;95.40;;;;;;5019291;28;20149;-81
2023/08/05 01:20:13;;;;;;;11.82;4.20;;;15.10;95.60;;;;;;5010452;28;20046;-81
2023/08/05 01:22:43;;;;;;;18.90;4.68;;;15.10;95.60;;;;;;5001666;28;20101;-81
2023/08/05 01:25:23;;;;;;;8.98;4.00;;;15.00;95.90;;;;;;5004142;28;20054;-81
2023/08/05 01:27:52;;;;;;;12.65;3.80;;;15.00;95.80;;;;;;5025843;28;20077;-81
2023/08/05 01:30:20;;;;;;;11.75;4.57;;;15.00;96.20;;;;;;5008270;28;20546;-81
2023/08/05 01:32:49;;;;;;;12.32;4.50;;;15.00;95.90;;;;;;5009830;28;20399;-81
2023/08/05 01:35:20;;;;;;;19.08;4.47;;;15.00;95.90;;;;;;5009203;28;20054;-81
2023/08/05 01:37:46;;;;;;;10.32;3.90;;;14.90;96.00;;;;;;5009239;28;20037;-81
2023/08/05 01:40:14;;;;;;;23.75;4.20;;;14.90;96.50;;;;;;5024041;28;20145;-81
2023/08/05 01:42:41;;;;;;;13.20;4.18;;;14.90;96.90;;;;;;5008894;28;20104;-81
2023/08/05 01:45:08;;;;;;;9.50;3.53;;;14.90;96.90;;;;;;5008763;28;20064;-81
2023/08/05 01:47:35;;;;;;;8.05;3.83;;;14.90;96.30;;;;;;5008193;28;20136;-81
2023/08/05 01:50:02;;;;;;;10.60;3.80;;;14.90;95.80;;;;;;5020246;28;20065;-81
2023/08/05 01:52:29;;;;;;;18.00;3.90;;;14.80;96.30;;;;;;5008313;28;20617;-82
2023/08/05 01:54:56;;;;;;;10.02;3.75;;;14.80;96.50;;;;;;5006147;28;20515;-80
2023/08/05 01:57:23;;;;;;;9.25;3.58;;;14.80;96.60;;;;;;5007737;28;20046;-81
2023/08/05 01:59:50;;;;;;;14.55;3.53;;;14.80;96.30;;;;;;5001270;28;20134;-82
2023/08/05 02:02:17;;;;;;;12.95;3.85;;;14.70;96.00;;;;;;5008809;28;20042;-81
2023/08/05 02:04:43;;;;;;;13.20;3.95;;;14.70;96.50;;;;;;5008727;28;20045;-81
2023/08/05 02:07:11;;;;;;;14.65;4.15;;;14.60;96.80;;;;;;5023319;28;20553;-81
2023/08/05 02:09:38;;;;;;;9.13;3.35;;;14.50;96.30;;;;;;5024947;28;20049;-81
2023/08/05 02:12:05;;;;;;;14.23;3.13;;;14.40;96.00;;;;;;5006945;28;20049;-81
2023/08/05 02:14:32;;;;;;;12.73;4.05;;;14.30;95.30;;;;;;5020008;28;20132;-82
2023/08/05 02:16:59;;;;;;;11.88;3.17;;;14.20;95.30;;;;;;5007049;28;20446;-81
2023/08/05 02:19:26;;;;;;;9.25;3.75;;;14.20;95.30;;;;;;5008274;28;20046;-81
2023/08/05 02:21:53;;;;;;;15.93;3.83;;;14.10;95.90;;;;;;5005670;28;20046;-81
2023/08/05 02:24:20;;;;;;;20.98;3.55;;;14.00;96.00;;;;;;5001790;28;20112;-81
2023/08/05 02:26:47;;;;;;;14.52;3.67;;;13.90;96.20;;;;;;5008765;28;20132;-81
2023/08/05 02:29:14;;;;;;;14.00;3.63;;;13.80;96.00;;;;;;5007334;28;20100;-81
2023/08/05 02:31:41;;;;;;;17.00;3.63;;;13.70;96.70;;;;;;5000760;28;20542;-81
2023/08/05 02:34:08;;;;;;;11.68;3.70;;;13.60;97.00;;;;;;5002174;28;20141;-80
2023/08/05 02:36:35;;;;;;;15.80;3.70;;;13.50;96.80;;;;;;5002568;28;20050;-81
2023/08/05 02:39:02;;;;;;;17.50;3.60;;;13.40;96.90;;;;;;5021206;28;20151;-81
2023/08/05 02:41:29;;;;;;;12.85;4.15;;;13.40;97.20;;;;;;5021743;28;20100;-80
2023/08/05 02:43:56;;;;;;;17.88;4.45;;;13.20;97.00;;;;;;5021044;28;20125;-80
2023/08/05 02:46:23;;;;;;;9.05;3.63;;;13.10;97.60;;;;;;5022038;28;20137;-80
2023/08/05 02:48:50;;;;;;;12.90;6.13;;;13.10;97.70;;;;;;5023219;28;20054;-81
2023/08/05 02:51:17;;;;;;;17.48;4.20;;;13.10;98.20;;;;;;5004794;28;20053;-80
2023/08/05 02:53:44;;;;;;;11.52;4.25;;;13.00;98.40;;;;;;5020000;28;20045;-81
2023/08/05 02:56:11;;;;;;;12.85;3.50;;;12.90;98.30;;;;;;5003987;28;20082;-81
2023/08/05 02:58:38;;;;;;;19.45;4.20;;;12.90;98.40;;;;;;5008974;28;20042;-81
2023/08/05 03:01:09;;;;;;;15.35;4.07;;;12.80;98.90;;;;;;5005452;28;20671;-81
2023/08/05 03:03:36;;;;;;;17.65;4.25;;;12.70;99.10;;;;;;5021444;28;20115;-81
2023/08/05 03:06:03;;;;;;;13.40;4.00;;;12.70;99.40;;;;;;5008459;28;20446;-81
2023/08/05 03:08:30;;;;;;;12.38;4.13;;;12.60;99.70;;;;;;5003805;28;20100;-81
2023/08/05 03:10:59;;;;;;;12.60;4.13;;;12.60;99.80;;;;;;5007993;28;20057;-81
2023/08/05 03:13:26;;;;;;;11.48;4.03;;;12.50;100.00;;;;;;5012137;28;20124;-81
2023/08/05 03:15:54;;;;;;;17.25;3.85;;;12.50;100.00;;;;;;5004724;28;20050;-81
2023/08/05 03:18:21;;;;;;;11.40;4.05;;;12.50;100.00;;;;;;5007887;28;20173;-81
2023/08/05 03:20:48;;;;;;;13.57;4.05;;;12.40;100.00;;;;;;5007006;28;20046;-81
2023/08/05 03:23:15;;;;;;;11.90;4.20;;;12.40;100.00;;;;;;5008617;28;20060;-80
2023/08/05 03:25:42;;;;;;;10.95;3.88;;;12.30;100.00;;;;;;5009426;28;20054;-81
2023/08/05 03:28:09;;;;;;;13.20;4.80;;;12.30;100.00;;;;;;5020744;28;20115;-82
2023/08/05 03:30:36;;;;;;;10.85;4.15;;;12.30;100.00;;;;;;5004262;28;20050;-82
2023/08/05 03:33:03;;;;;;;18.40;4.05;;;12.20;100.00;;;;;;5007658;28;20138;-81
2023/08/05 03:35:30;;;;;;;19.35;4.78;;;12.20;100.00;;;;;;5004524;28;20049;-80
2023/08/05 03:37:57;;;;;;;11.27;4.38;;;12.10;100.00;;;;;;5009886;28;20169;-81
2023/08/05 03:40:24;;;;;;;21.35;4.85;;;12.10;100.00;;;;;;5006949;28;20052;-81
2023/08/05 03:42:51;;;;;;;11.95;3.75;;;12.00;100.00;;;;;;5002647;28;20056;-81
2023/08/05 03:45:18;;;;;;;19.90;4.80;;;12.00;100.00;;;;;;5004204;28;20133;-82
2023/08/05 03:47:49;;;;;;;10.07;4.40;;;11.90;100.00;;;;;;5007446;28;20053;-81
2023/08/05 03:50:17;;;;;;;17.42;4.60;;;11.90;100.00;;;;;;5001502;28;20064;-81
2023/08/05 03:52:44;;;;;;;16.27;4.38;;;11.80;100.00;;;;;;5002283;28;20078;-80
2023/08/05 03:55:11;;;;;;;13.35;4.25;;;11.80;100.00;;;;;;5006181;28;20077;-80
2023/08/05 03:57:38;;;;;;;13.57;4.72;;;11.80;100.00;;;;;;5013247;28;20483;-80
2023/08/05 04:00:08;;;;;;;14.98;4.55;;;11.80;100.00;;;;;;5005031;28;20148;-80
2023/08/05 04:02:36;;;;;;;15.93;4.65;;;11.70;100.00;;;;;;5010947;28;20073;-81
2023/08/05 04:05:04;;;;;;;25.73;4.75;;;11.70;100.00;;;;;;5026693;28;20045;-81
2023/08/05 04:07:31;;;;;;;21.02;5.13;;;11.70;100.00;;;;;;5029797;28;20446;-80
2023/08/05 04:09:58;;;;;;;15.25;4.00;;;11.70;100.00;;;;;;5009150;28;20450;-81
2023/08/05 04:12:26;;;;;;;23.58;4.80;;;11.70;100.00;;;;;;5025222;28;20050;-81
2023/08/05 04:14:53;;;;;;;17.77;4.65;;;11.70;100.00;;;;;;5024225;28;20050;-81
2023/08/05 04:17:21;;;;;;;17.45;4.45;;;11.70;100.00;;;;;;5005652;28;20279;-81
2023/08/05 04:19:50;;;;;;;13.18;4.60;;;11.70;100.00;;;;;;5009024;28;20046;-81
2023/08/05 04:22:20;;;;;;;22.08;4.55;;;11.70;100.00;;;;;;5010536;28;20803;-80
2023/08/05 04:24:47;;;;;;;16.23;5.43;;;11.70;100.00;;;;;;5009323;28;20486;-81
2023/08/05 04:27:14;;;;;;;16.85;4.60;;;11.80;100.00;;;;;;5023608;28;20133;-81
2023/08/05 04:29:42;;;;;;;18.83;5.07;;;11.80;100.00;;;;;;5017636;28;20049;-81
2023/08/05 04:32:09;;;;;;;17.17;4.65;;;11.80;100.00;;;;;;5024842;28;20054;-80
2023/08/05 04:34:37;;;;;;;21.88;5.25;;;11.80;100.00;;;;;;5017385;28;20886;-81
2023/08/05 04:37:17;;;;;;;33.72;4.80;;;11.80;100.00;;;;;;5002026;28;20045;-81
2023/08/05 04:39:44;;;;;;;21.90;4.78;;;11.80;100.00;;;;;;5025096;28;20081;-81
2023/08/05 04:42:12;;;;;;;16.73;4.65;;;11.80;100.00;;;;;;5004798;28;20057;-81
2023/08/05 04:44:43;;;;;;;20.45;4.72;;;11.80;100.00;;;;;;5026945;28;20049;-81
2023/08/05 04:47:10;;;;;;;16.38;4.70;;;11.80;100.00;;;;;;5025844;28;20131;-81
2023/08/05 04:49:40;;;;;;;21.13;5.30;;;11.90;100.00;;;;;;5011167;28;20144;-81
2023/08/05 04:52:08;;;;;;;24.95;5.22;;;11.90;100.00;;;;;;5026849;28;20073;-81
2023/08/05 04:54:39;;;;;;;10.68;4.22;;;11.90;100.00;;;;;;5006866;28;20117;-80
2023/08/05 04:57:06;;;;;;;15.30;4.60;;;12.00;100.00;;;;;;5025355;28;20085;-80
2023/08/05 04:59:34;;;;;;;15.95;4.88;;;12.00;100.00;;;;;;5011685;28;20104;-80
2023/08/05 05:02:00;;;;;;;14.82;5.00;;;12.00;100.00;;;;;;5008530;28;20049;-81
2023/08/05 05:04:28;;;;;;;15.07;4.78;;;12.10;100.00;;;;;;5011923;28;20092;-81
2023/08/05 05:06:55;;;;;;;18.13;4.80;;;12.10;100.00;;;;;;5011362;28;20049;-80
2023/08/05 05:09:22;;;;;;;17.75;5.47;;;12.20;100.00;;;;;;5001163;28;20051;-80
2023/08/05 05:11:49;;;;;;;15.10;5.60;;;12.20;100.00;;;;;;5026396;28;20151;-80
2023/08/05 05:14:15;;;;;;;15.82;4.53;;;12.30;100.00;;;;;;5002691;28;20141;-80
2023/08/05 05:16:42;;;;;;;19.70;5.03;;;12.40;100.00;;;;;;5021380;28;20104;-80
2023/08/05 05:19:09;;;;;;;17.70;5.65;;;12.40;100.00;;;;;;5009063;28;20108;-79
2023/08/05 05:21:36;;;;;;;20.83;5.15;;;12.50;100.00;;;;;;4998752;28;20125;-79
2023/08/05 05:24:04;;;;;;;17.70;5.30;;;12.50;100.00;;;;;;5003454;28;20046;-81
2023/08/05 05:26:31;;;;;;;15.95;5.05;;;12.70;100.00;;;;;;5007494;28;20601;-80
2023/08/05 05:28:58;;;;;;;14.02;4.75;;;12.70;100.00;;;;;;5002612;28;20104;-80
2023/08/05 05:31:25;;;;;;;12.10;4.32;;;12.80;100.00;;;;;;5001528;28;20161;-80
2023/08/05 05:33:52;;;;;;;17.85;4.70;;;12.90;100.00;;;;;;5016681;28;20053;-80
2023/08/05 05:36:19;;;;;;;13.95;4.80;;;13.00;100.00;;;;;;5014413;28;20056;-80
2023/08/05 05:38:46;;;;;;;12.60;4.60;;;13.10;100.00;;;;;;5027310;28;20045;-81
2023/08/05 05:41:13;;;;;;;15.63;4.53;;;13.10;100.00;;;;;;5009398;28;20057;-81
2023/08/05 05:43:40;;;;;;;17.45;4.55;;;13.20;100.00;;;;;;5026264;28;20049;-83
2023/08/05 05:46:06;;;;;;;16.02;4.70;;;13.20;99.50;;;;;;5009878;28;20049;-82
2023/08/05 05:48:33;;;;;;;13.93;4.45;;;13.30;99.90;;;;;;5005820;28;20501;-82
2023/08/05 05:51:00;;;;;;;10.02;4.63;;;13.30;99.40;;;;;;5008695;28;20042;-79
2023/08/05 05:53:27;;;;;;;11.20;3.83;;;13.40;99.10;;;;;;5016019;28;20054;-79
2023/08/05 05:55:54;;;;;;;9.85;3.90;;;13.50;99.00;;;;;;5027021;28;20078;-79
2023/08/05 05:58:21;;;;;;;16.15;4.07;;;13.70;99.10;;;;;;5016459;28;20116;-78
2023/08/05 06:00:54;;;;;;;16.05;4.18;;;13.70;97.90;;;;;;5005731;28;20399;-78
2023/08/05 06:03:21;;;;;;;17.25;4.45;;;13.80;97.90;;;;;;5001396;28;20057;-78
2023/08/05 06:05:50;;;;;;;13.48;4.28;;;14.00;98.30;;;;;;5003256;28;20201;-76
2023/08/05 06:08:17;;;;;;;16.70;5.22;;;14.10;97.90;;;;;;5023971;28;21713;-79
2023/08/05 06:10:45;;;;;;;9.40;3.95;;;14.20;96.70;;;;;;5005628;28;20827;-80
2023/08/05 06:13:12;;;;;;;15.43;4.30;;;14.40;96.00;;;;;;5004575;28;20056;-80
2023/08/05 06:15:40;;;;;;;13.23;4.10;;;14.50;95.60;;;;;;5019794;28;20129;-80
2023/08/05 06:18:08;;;;;;;10.15;3.60;;;14.70;94.70;;;;;;5018035;28;20866;-80
2023/08/05 06:20:36;;;;;;;9.05;3.63;;;14.90;93.10;;;;;;5004120;28;20053;-80
2023/08/05 06:23:03;;;;;;;10.35;3.03;;;15.20;95.20;;;;;;5015015;28;20057;-81
2023/08/05 06:25:30;;;;;;;18.17;3.00;;;15.60;92.40;;;;;;5005024;28;20128;-81
2023/08/05 06:27:57;;;;;;;10.98;3.00;;;16.00;91.50;;;;;;5022901;28;20061;-80
2023/08/05 06:30:24;;;;;;;13.98;3.38;;;16.30;89.90;;;;;;5018439;28;20046;-81
2023/08/05 06:32:51;;;;;;;10.68;2.92;;;16.70;88.50;;;;;;5005500;28;20449;-81
2023/08/05 06:35:18;;;;;;;5.55;2.10;;;17.00;85.70;;;;;;5023284;28;20721;-80
2023/08/05 06:37:45;;;;;;;6.03;2.10;;;17.30;85.00;;;;;;5024805;28;20062;-81
2023/08/05 06:40:13;;;;;;;7.18;1.92;;;17.70;83.00;;;;;;5010827;28;20056;-80
2023/08/05 06:42:39;;;;;;;7.97;1.98;;;18.10;81.20;;;;;;5025603;28;20129;-81
2023/08/05 06:45:08;;;;;;;8.50;1.95;;;18.40;80.30;;;;;;5010965;28;20111;-81
2023/08/05 06:47:35;;;;;;;6.15;2.20;;;18.60;79.20;;;;;;5009105;28;20690;-81
2023/08/05 06:50:06;;;;;;;9.80;2.25;;;18.80;76.30;;;;;;5024537;28;20065;-81
2023/08/05 06:52:33;;;;;;;10.73;2.17;;;19.00;78.80;;;;;;5010296;28;20108;-81
2023/08/05 06:55:02;;;;;;;9.63;2.13;;;19.20;77.00;;;;;;5008283;28;20088;-81
2023/08/05 06:57:28;;;;;;;10.20;2.35;;;19.60;76.20;;;;;;5008574;28;20049;-81
2023/08/05 06:59:55;;;;;;;8.98;2.05;;;20.30;75.00;;;;;;5020895;28;20096;-82
2023/08/05 07:02:22;;;;;;;9.18;2.00;;;21.00;73.60;;;;;;5020647;28;20116;-81
2023/08/05 07:04:49;;;;;;;8.25;1.92;;;21.50;71.40;;;;;;5023788;28;20046;-81
2023/08/05 07:07:16;;;;;;;6.18;1.92;;;21.90;69.60;;;;;;5008743;28;20046;-81
2023/08/05 07:09:43;;;;;;;12.05;1.70;;;22.50;66.60;;;;;;5009825;28;20046;-81
2023/08/05 07:12:10;;;;;;;6.47;1.70;;;23.10;65.20;;;;;;5009803;28;20438;-81
2023/08/05 07:14:38;;;;;;;5.72;1.42;;;23.60;61.80;;;;;;5009638;28;20065;-81
2023/08/05 07:17:05;;;;;;;4.00;1.40;;;23.50;60.50;;;;;;5008717;28;20054;-81
2023/08/05 07:19:32;;;;;;;9.52;2.25;;;23.90;59.60;;;;;;5029319;28;20081;-81
2023/08/05 07:21:59;;;;;;;9.57;1.75;;;24.00;58.30;;;;;;5001625;28;20053;-82
2023/08/05 07:24:26;;;;;;;8.95;1.30;;;24.20;59.30;;;;;;5013975;28;20050;-82
2023/08/05 07:26:53;;;;;;;2.78;1.15;;;24.60;57.70;;;;;;5006612;28;20054;-81
2023/08/05 07:29:19;;;;;;;3.05;1.90;;;24.80;55.80;;;;;;5010260;28;20045;-82
2023/08/05 07:31:46;;;;;;;5.75;1.60;;;24.90;56.80;;;;;;5000892;28;20080;-82
2023/08/05 07:34:15;;;;;;;9.90;1.75;;;25.10;58.10;;;;;;5004601;28;20038;-81
2023/08/05 07:36:43;;;;;;;6.00;1.30;;;25.20;54.90;;;;;;5001683;28;20046;-81
2023/08/05 07:39:10;;;;;;;4.38;1.42;;;24.60;56.40;;;;;;4997207;28;20057;-82
2023/08/05 07:41:37;;;;;;;1.95;1.38;;;25.30;56.20;;;;;;5021765;28;20045;-81
2023/08/05 07:44:05;;;;;;;9.45;1.40;;;25.60;54.90;;;;;;5009301;28;20042;-81
2023/08/05 07:46:35;;;;;;;6.80;1.40;;;25.70;53.80;;;;;;5006102;28;20065;-82
2023/08/05 07:49:03;;;;;;;4.75;1.23;;;25.30;55.70;;;;;;5010262;28;20054;-82
2023/08/05 07:51:30;;;;;;;8.75;2.25;;;25.40;55.70;;;;;;5002175;28;20047;-82
2023/08/05 07:53:57;;;;;;;6.93;2.10;;;25.40;55.90;;;;;;5021847;28;20100;-82
2023/08/05 07:56:25;;;;;;;5.53;1.38;;;25.90;55.30;;;;;;5004001;28;20495;-82
2023/08/05 07:58:52;;;;;;;4.70;1.25;;;26.00;54.70;;;;;;5022405;28;20108;-82
2023/08/05 08:01:21;;;;;;;9.38;1.60;;;26.20;54.20;;;;;;5008057;28;20046;-83
2023/08/05 08:03:53;;;;;;;4.97;1.35;;;26.40;56.30;;;;;;5005595;28;20133;-82
2023/08/05 08:06:21;;;;;;;7.00;1.63;;;26.10;51.10;;;;;;5000304;28;20104;-82
2023/08/05 08:08:49;;;;;;;2.00;1.00;;;25.10;53.80;;;;;;5006911;28;20060;-81
2023/08/05 08:11:16;;;;;;;6.80;1.38;;;25.00;57.10;;;;;;5007682;28;20046;-81
2023/08/05 08:13:43;;;;;;;5.40;1.33;;;25.60;57.30;;;;;;5003451;28;20125;-82
2023/08/05 08:16:10;;;;;;;2.95;0.90;;;26.00;52.50;;;;;;5008410;28;20077;-82
2023/08/05 08:18:37;;;;;;;4.82;1.42;;;26.30;52.70;;;;;;5005030;28;20697;-81
2023/08/05 08:21:06;;;;;;;2.65;1.20;;;26.20;53.90;;;;;;5005944;28;20104;-82
2023/08/05 08:23:33;;;;;;;5.22;1.48;;;26.20;55.10;;;;;;5008864;28;20081;-82
2023/08/05 08:26:00;;;;;;;6.57;1.70;;;26.50;53.60;;;;;;5023931;28;20042;-82
2023/08/05 08:28:27;;;;;;;3.13;1.05;;;26.90;50.40;;;;;;5008569;28;20107;-81
2023/08/05 08:30:57;;;;;;;3.10;1.45;;;26.20;48.70;;;;;;5005568;28;20048;-81
2023/08/05 08:33:25;;;;;;;6.25;1.42;;;25.60;52.40;;;;;;5022427;28;20495;-81
2023/08/05 08:35:53;;;;;;;4.13;1.60;;;25.30;52.50;;;;;;5028211;28;20053;-82
2023/08/05 08:38:22;;;;;;;8.02;1.38;;;25.10;50.60;;;;;;5000974;28;20046;-82
2023/08/05 08:40:51;;;;;;;5.38;1.58;;;24.80;51.20;;;;;;5017852;28;20124;-81
2023/08/05 08:43:19;;;;;;;4.57;1.45;;;24.10;52.20;;;;;;5006330;28;20048;-81
2023/08/05 08:45:49;;;;;;;4.57;1.05;;;23.80;53.70;;;;;;5009943;28;20045;-81
2023/08/05 08:48:16;;;;;;;6.78;1.30;;;23.30;55.20;;;;;;5003010;28;20060;-82
2023/08/05 08:50:44;;;;;;;3.20;1.45;;;23.10;55.50;;;;;;5018625;28;20045;-81
2023/08/05 08:53:15;;;;;;;2.67;1.27;;;22.90;54.20;;;;;;5011860;28;20077;-81
2023/08/05 08:55:43;;;;;;;3.92;1.40;;;22.90;56.00;;;;;;5008831;28;20677;-81
2023/08/05 08:58:11;;;;;;;6.03;1.30;;;23.00;56.90;;;;;;5008590;28;20049;-82
2023/08/05 09:00:38;;;;;;;4.30;1.27;;;23.50;57.10;;;;;;5006523;28;20111;-82
2023/08/05 09:03:06;;;;;;;3.40;1.17;;;24.60;56.20;;;;;;5011774;28;20112;-81
2023/08/05 09:05:36;;;;;;;3.67;1.20;;;25.60;56.10;;;;;;5003084;28;20935;-82
2023/08/05 09:08:04;;;;;;;7.65;1.10;;;26.00;50.40;;;;;;5026524;28;20049;-81
2023/08/05 09:10:30;;;;;;;6.35;1.70;;;25.50;49.60;;;;;;5030232;28;20060;-80
2023/08/05 09:12:58;;;;;;;3.60;1.15;;;24.90;50.80;;;;;;5011547;28;20514;-80
2023/08/05 09:15:33;;;;;;;6.40;1.15;;;24.60;50.90;;;;;;5011183;28;20057;-81
2023/08/05 09:18:01;;;;;;;4.95;1.63;;;23.90;52.20;;;;;;5009266;28;20049;-80
2023/08/05 09:20:30;;;;;;;3.55;1.50;;;23.40;56.80;;;;;;5007852;28;20046;-80
2023/08/05 09:23:01;;;;;;;4.32;1.42;;;23.60;56.20;;;;;;5023268;28;20042;-80
2023/08/05 09:25:30;;;;;;;4.20;1.10;;;24.30;52.30;;;;;;5021232;28;20046;-79
2023/08/05 09:28:00;;;;;;;5.47;1.15;;;25.40;54.30;;;;;;5026240;28;20073;-81
2023/08/05 09:30:27;;;;;;;2.70;1.17;;;26.10;52.50;;;;;;5010313;28;20054;-80
2023/08/05 09:32:54;;;;;;;3.38;1.08;;;26.50;51.40;;;;;;5010364;28;20050;-80
2023/08/05 09:35:23;;;;;;;4.70;1.63;;;27.60;49.50;;;;;;5009389;28;20057;-80
2023/08/05 09:37:52;;;;;;;1.52;0.90;;;28.40;46.70;;;;;;5002278;28;20178;-80
2023/08/05 09:40:24;;;;;;;2.40;0.80;;;28.50;46.10;;;;;;5010093;28;20077;-80
2023/08/05 09:42:54;;;;;;;4.93;0.88;;;27.50;44.20;;;;;;5006702;28;20045;-80
2023/08/05 09:45:21;;;;;;;2.30;1.08;;;27.50;48.10;;;;;;5011381;28;20045;-79
2023/08/05 09:47:52;;;;;;;2.85;1.10;;;27.60;45.80;;;;;;5004249;28;20494;-80
2023/08/05 09:50:20;;;;;;;3.88;1.05;;;27.00;47.40;;;;;;5010542;28;20112;-80
2023/08/05 09:52:51;;;;;;;4.82;0.90;;;26.20;45.90;;;;;;5013504;28;20049;-79
2023/08/05 09:55:19;;;;;;;3.17;1.02;;;26.00;47.90;;;;;;5026111;28;20469;-79
2023/08/05 09:57:46;;;;;;;4.18;1.20;;;25.80;48.90;;;;;;5003982;28;20045;-80
2023/08/05 10:00:14;;;;;;;4.93;1.15;;;25.20;49.50;;;;;;5024755;28;20089;-80
2023/08/05 10:02:43;;;;;;;4.75;1.17;;;23.70;51.30;;;;;;5004332;28;20475;-79
2023/08/05 10:05:12;;;;;;;2.00;0.73;;;24.20;51.40;;;;;;5025389;28;20125;-79
2023/08/05 10:07:40;;;;;;;8.00;1.20;;;23.90;49.90;;;;;;5008970;28;20045;-80
2023/08/05 10:10:16;;;;;;;3.42;1.10;;;23.90;52.20;;;;;;5010637;28;20146;-82
2023/08/05 10:13:00;;;;;;;2.95;1.17;;;23.90;53.10;;;;;;5012972;28;20042;-81
2023/08/05 10:15:32;;;;;;;3.83;1.00;;;23.90;53.80;;;;;;5006719;28;20100;-82
2023/08/05 10:17:59;;;;;;;3.60;1.75;;;23.70;52.80;;;;;;5025281;28;20050;-82
2023/08/05 10:20:26;;;;;;;6.90;1.45;;;23.60;54.60;;;;;;5002617;28;20061;-82
2023/08/05 10:23:09;;;;;;;6.28;1.45;;;24.10;55.80;;;;;;5006558;28;20080;-81
2023/08/05 10:25:42;;;;;;;4.20;1.20;;;24.50;53.30;;;;;;5009665;28;20798;-80
2023/08/05 10:28:31;;;;;;;2.25;1.00;;;25.30;51.60;;;;;;5022848;28;20041;-79
2023/08/05 10:31:03;;;;;;;4.40;0.98;;;25.90;52.80;;;;;;5006746;28;20064;-78
2023/08/05 10:33:30;;;;;;;9.35;1.20;;;26.30;47.60;;;;;;5009536;28;20054;-79
2023/08/05 10:36:01;;;;;;;6.07;1.10;;;25.80;50.50;;;;;;5025312;28;20053;-81
2023/08/05 10:38:40;;;;;;;3.95;1.10;;;25.40;49.90;;;;;;5008937;28;20096;-79
2023/08/05 10:41:07;;;;;;;4.57;1.23;;;25.40;50.30;;;;;;5009518;28;20124;-80
2023/08/05 10:43:36;;;;;;;1.80;0.98;;;25.80;49.70;;;;;;5025572;28;20883;-80
2023/08/05 10:46:06;;;;;;;7.18;1.27;;;25.30;49.00;;;;;;5014265;28;20049;-79
2023/08/05 10:48:44;;;;;;;4.63;1.00;;;25.20;48.70;;;;;;5010144;28;20647;-79
2023/08/05 10:51:22;;;;;;;3.83;1.20;;;25.00;49.80;;;;;;5009585;28;20057;-79
2023/08/05 10:53:55;;;;;;;2.78;1.05;;;24.70;52.30;;;;;;5005015;28;20480;-79
2023/08/05 10:56:33;;;;;;;7.15;1.42;;;24.60;52.10;;;;;;5022443;28;20116;-79
2023/08/05 10:59:04;;;;;;;4.82;1.25;;;24.30;52.00;;;;;;5016687;28;20120;-81
2023/08/05 11:01:53;;;;;;;6.40;1.40;;;24.40;54.30;;;;;;5008473;28;20659;-78
2023/08/05 11:04:29;;;;;;;3.75;1.40;;;24.30;51.90;;;;;;5025228;28;20057;-80
2023/08/05 11:06:59;;;;;;;3.53;1.33;;;24.30;53.20;;;;;;5009787;28;20080;-79
2023/08/05 11:09:27;;;;;;;6.00;1.40;;;24.40;54.10;;;;;;5024307;28;20165;-79
2023/08/05 11:11:53;;;;;;;3.92;1.08;;;24.20;51.80;;;;;;5008671;28;20775;-80
2023/08/05 11:14:22;;;;;;;3.65;0.90;;;24.30;52.40;;;;;;5009758;28;20535;-79
2023/08/05 11:16:49;;;;;;;3.47;1.25;;;24.30;52.00;;;;;;5019510;28;20046;-79
2023/08/05 11:19:16;;;;;;;2.67;1.02;;;24.20;51.40;;;;;;5012651;28;20050;-79
2023/08/05 11:21:44;;;;;;;3.00;1.10;;;24.00;53.00;;;;;;5000860;28;20052;-79
2023/08/05 11:24:20;;;;;;;3.72;1.27;;;23.90;52.90;;;;;;5023373;28;20038;-79
2023/08/05 11:26:47;;;;;;;3.60;1.23;;;23.80;52.50;;;;;;4997658;28;20101;-79
2023/08/05 11:29:14;;;;;;;4.00;0.98;;;23.90;53.40;;;;;;5021379;28;20050;-79
2023/08/05 11:31:51;;;;;;;3.50;1.27;;;24.00;55.00;;;;;;5002025;28;20057;-79
2023/08/05 11:34:24;;;;;;;2.78;1.25;;;24.10;55.10;;;;;;4995893;28;20097;-79
2023/08/05 11:36:55;;;;;;;4.20;1.00;;;24.30;53.90;;;;;;5005098;28;20148;-80
2023/08/05 11:39:25;;;;;;;4.25;1.10;;;24.50;53.30;;;;;;4999372;28;20053;-80
2023/08/05 11:41:52;;;;;;;4.97;1.30;;;24.50;52.70;;;;;;5002769;28;20042;-79
2023/08/05 11:44:20;;;;;;;3.42;1.33;;;24.50;53.90;;;;;;4996920;28;20050;-79
2023/08/05 11:46:47;;;;;;;10.85;1.45;;;24.50;54.10;;;;;;5009463;28;20093;-80
2023/08/05 11:49:26;;;;;;;3.13;1.08;;;24.20;54.50;;;;;;5008431;28;20045;-80
2023/08/05 11:51:53;;;;;;;5.03;1.20;;;24.20;53.10;;;;;;5000111;28;20050;-79
2023/08/05 11:54:34;;;;;;;5.47;1.75;;;24.00;54.50;;;;;;5012582;28;20061;-79
2023/08/05 11:57:16;;;;;;;3.97;1.42;;;23.90;53.20;;;;;;4996225;28;20061;-79
2023/08/05 11:59:45;;;;;;;3.20;1.25;;;23.60;56.10;;;;;;5009363;28;20049;-79
2023/08/05 12:02:16;;;;;;;4.05;1.33;;;23.60;53.40;;;;;;5003229;28;20049;-79
2023/08/05 12:04:49;;;;;;;2.50;1.17;;;23.50;56.00;;;;;;5008866;28;20049;-79
2023/08/05 12:07:19;;;;;;;4.80;1.48;;;23.80;55.10;;;;;;5022148;28;20057;-79
2023/08/05 12:10:08;;;;;;;3.47;1.10;;;23.80;55.10;;;;;;5005296;28;20100;-79
2023/08/05 12:12:37;;;;;;;4.28;1.58;;;24.00;51.70;;;;;;5015505;28;20050;-79
2023/08/05 12:15:14;;;;;;;2.42;1.05;;;23.80;53.50;;;;;;5011084;28;20088;-80
2023/08/05 12:17:49;;;;;;;3.60;1.23;;;23.50;52.70;;;;;;5007339;28;20046;-80
2023/08/05 12:20:30;;;;;;;5.30;1.30;;;23.90;53.20;;;;;;5003659;28;20696;-79
2023/08/05 12:23:01;;;;;;;5.15;1.40;;;24.40;53.30;;;;;;5011448;28;20107;-79
2023/08/05 12:25:29;;;;;;;1.80;1.13;;;24.60;53.10;;;;;;5010758;28;20045;-82
2023/08/05 12:27:57;;;;;;;8.27;3.08;;;24.80;54.00;;;;;;5008827;28;20050;-78
2023/08/05 12:30:24;;;;;;;3.22;1.83;;;25.50;54.00;;;;;;5010404;28;20497;-80
2023/08/05 12:32:52;;;;;;;5.45;2.88;;;26.50;54.40;;;;;;5026752;28;20042;-82
2023/08/05 12:35:20;;;;;;;2.63;1.73;;;28.10;51.30;;;;;;5010767;28;20781;-78
2023/08/05 12:37:47;;;;;;;5.28;1.05;;;28.90;47.70;;;;;;5009876;28;20046;-80
2023/08/05 12:40:13;;;;;;;1.90;1.00;;;28.30;46.00;;;;;;5025566;28;20050;-80
2023/08/05 12:42:40;;;;;;;2.92;1.17;;;27.90;47.30;;;;;;5011664;28;20045;-82
2023/08/05 12:45:08;;;;;;;6.15;1.15;;;27.70;46.30;;;;;;5012232;28;20136;-79
2023/08/05 12:47:37;;;;;;;6.80;1.63;;;27.30;48.80;;;;;;5003569;28;20045;-79